Time;durP1;ratioP1;P1;durP2;ratioP2;P2;SDS_P1;SDS_P2;PMS_P1;PMS_P2;Temp;Humidity;BMP_temperature;BMP_pressure;BME280_temperature;BME280_humidity;BME280_pressure;Samples;Min_cycle;Max_cycle;Signal;HPM_P1;HPM_P2
2022/11/01 00:04:11;;;;;;;;;;;12.30;99.90;;;10.17;100.00;100771.16;10358565;28;19934;-87
2022/11/01 00:09:13;;;;;;;;;;;12.30;99.90;;;10.19;100.00;100763.91;10350558;28;20314;-86
2022/11/01 00:14:18;;;;;;;;;;;12.30;99.90;;;10.18;100.00;100764.03;10364625;28;19940;-87
2022/11/01 00:19:20;;;;;;;;;;;12.30;99.90;;;10.17;100.00;100751.75;10353120;28;19941;-87
2022/11/01 00:24:24;;;;;;;;;;;12.30;99.90;;;10.17;100.00;100751.75;10395317;28;19934;-88
2022/11/01 00:29:26;;;;;;;;;;;12.30;99.90;;;10.19;100.00;100760.38;10335109;28;20029;-88
2022/11/01 00:34:29;;;;;;;;;;;12.30;99.90;;;10.17;100.00;100757.06;10370628;28;20028;-87
2022/11/01 00:39:32;;;;;;;;;;;12.30;99.90;;;10.15;100.00;100751.91;10340848;28;19940;-88
2022/11/01 00:44:35;;;;;;;;;;;12.20;99.90;;;10.14;100.00;100752.91;10343242;28;19933;-88
2022/11/01 00:49:38;;;;;;;;;;;12.20;99.90;;;10.17;100.00;100751.75;10340647;28;19934;-88
2022/11/01 00:54:40;;;;;;;;;;;12.20;99.90;;;10.16;100.00;100750.91;10380061;28;19933;-87
2022/11/01 00:59:43;;;;;;;;;;;12.20;99.90;;;10.16;100.00;100750.09;10341275;28;19934;-87
2022/11/01 01:04:47;;;;;;;;;;;12.20;99.90;;;10.11;100.00;100739.91;10355581;28;19972;-87
2022/11/01 01:09:51;;;;;;;;;;;12.20;99.90;;;10.12;100.00;100735.44;10342736;28;19941;-88
2022/11/01 01:14:53;;;;;;;;;;;12.20;99.90;;;10.11;100.00;100725.78;10335871;28;19934;-88
2022/11/01 01:19:56;;;;;;;;;;;12.20;99.90;;;10.10;100.00;100713.50;10341604;28;19940;-87
2022/11/01 01:25:00;;;;;;;;;;;12.10;99.90;;;10.08;100.00;100726.94;10358057;28;19972;-87
2022/11/01 01:30:06;;;;;;;;;;;12.10;99.90;;;10.06;100.00;100730.72;10349700;28;20290;-86
2022/11/01 01:35:09;;;;;;;;;;;12.10;99.90;;;10.00;100.00;100716.22;10324981;28;19940;-85
2022/11/01 01:40:12;;;;;;;;;;;12.10;99.90;;;9.96;100.00;100712.22;10342852;28;19934;-86
2022/11/01 01:45:32;;;;;;;;;;;12.10;99.90;;;9.95;100.00;100717.66;10339872;28;19933;-87
2022/11/01 01:50:53;;;;;;;;;;;12.00;99.90;;;9.95;100.00;100715.84;10303519;28;20320;-88
2022/11/01 01:56:02;;;;;;;;;;;12.00;99.90;;;9.95;100.00;100701.75;10346519;28;19969;-88
2022/11/01 02:01:05;;;;;;;;;;;12.00;99.90;;;9.95;100.00;100701.75;10346437;28;19934;-88
2022/11/01 02:06:10;;;;;;;;;;;12.00;99.90;;;9.96;100.00;100698.97;10341485;28;19940;-88
2022/11/01 02:11:15;;;;;;;;;;;12.10;99.90;;;9.96;100.00;100692.81;10361631;28;19934;-89
2022/11/01 02:16:21;;;;;;;;;;;12.10;99.90;;;9.98;100.00;100696.13;10338068;28;19941;-87
2022/11/01 02:21:39;;;;;;;;;;;12.10;99.90;;;9.98;100.00;100690.84;10347238;28;20406;-87
2022/11/01 02:26:55;;;;;;;;;;;12.10;99.90;;;9.98;100.00;100696.13;10347708;28;20000;-87
2022/11/01 02:32:20;;;;;;;;;;;12.10;99.90;;;9.98;100.00;100686.34;10316263;28;19934;-91
2022/11/01 02:37:35;;;;;;;;;;;12.10;99.90;;;9.98;100.00;100677.56;10343911;28;19941;-93
2022/11/01 02:42:43;;;;;;;;;;;12.00;99.90;;;9.95;100.00;100680.50;10341701;28;19934;-92
2022/11/01 02:47:46;;;;;;;;;;;12.00;99.90;;;9.92;100.00;100677.19;10342290;28;19934;-92
2022/11/01 02:52:50;;;;;;;;;;;12.00;99.90;;;9.92;100.00;100671.88;10343433;28;20464;-92
2022/11/01 02:57:53;;;;;;;;;;;12.00;99.90;;;9.93;100.00;100676.19;10317686;28;19937;-92
2022/11/01 03:03:01;;;;;;;;;;;12.00;99.90;;;9.96;100.00;100675.06;10335275;28;19975;-89
2022/11/01 03:08:08;;;;;;;;;;;12.10;99.90;;;9.97;100.00;100667.94;10342162;28;20328;-90
2022/11/01 03:13:40;;;;;;;;;;;12.10;99.90;;;9.98;100.00;100680.22;10324579;28;19940;-87
2022/11/01 03:18:59;;;;;;;;;;;12.10;99.90;;;9.96;100.00;100671.56;10349537;28;19933;-87
2022/11/01 03:24:09;;;;;;;;;;;12.00;99.90;;;9.95;100.00;100685.81;10345286;28;20009;-88
2022/11/01 03:29:13;;;;;;;;;;;12.10;99.90;;;9.95;100.00;100681.34;10349566;28;20020;-87
2022/11/01 03:34:18;;;;;;;;;;;12.00;99.90;;;9.94;100.00;100684.97;10334208;28;19934;-87
2022/11/01 03:39:25;;;;;;;;;;;12.00;99.90;;;9.92;100.00;100679.84;10344190;28;20406;-87
2022/11/01 03:44:35;;;;;;;;;;;12.00;99.90;;;9.90;100.00;100671.19;10350201;28;19934;-87
2022/11/01 03:49:38;;;;;;;;;;;12.00;99.90;;;9.91;100.00;100675.50;10325119;28;19934;-87
2022/11/01 03:54:41;;;;;;;;;;;12.00;99.90;;;9.93;100.00;100670.03;10345302;28;19937;-86
2022/11/01 03:59:44;;;;;;;;;;;12.00;99.90;;;9.87;100.00;100663.53;10347885;28;20024;-90
2022/11/01 04:04:47;;;;;;;;;;;12.00;99.90;;;9.88;100.00;100664.34;10343159;28;20358;-89
2022/11/01 04:09:50;;;;;;;;;;;11.90;99.90;;;9.88;100.00;100659.88;10333918;28;19933;-90
2022/11/01 04:20:31;;;;;;;;;;;11.90;99.90;;;9.86;100.00;100653.06;10367775;28;20385;-89
2022/11/01 04:25:34;;;;;;;;;;;11.90;99.90;;;9.85;100.00;100654.06;10355499;28;19934;-90
2022/11/01 04:30:37;;;;;;;;;;;11.90;99.90;;;9.83;100.00;100656.84;10380011;28;19933;-88
2022/11/01 04:35:39;;;;;;;;;;;11.90;99.90;;;9.79;100.00;100652.00;10356590;28;19941;-87
2022/11/01 04:40:42;;;;;;;;;;;11.90;99.90;;;9.83;100.00;100656.00;10339886;28;19938;-87
2022/11/01 04:45:52;;;;;;;;;;;11.90;99.90;;;9.82;100.00;100652.50;10343392;28;19940;-88
2022/11/01 04:50:55;;;;;;;;;;;11.90;99.90;;;9.81;100.00;100648.19;10318879;28;19934;-86
2022/11/01 04:56:00;;;;;;;;;;;11.90;99.90;;;9.83;100.00;100645.38;10347047;28;19933;-86
2022/11/01 05:01:05;;;;;;;;;;;11.90;99.90;;;9.86;100.00;100648.59;10339350;28;20337;-86
2022/11/01 05:06:08;;;;;;;;;;;11.90;99.90;;;9.83;100.00;100637.41;10351585;28;20393;-86
2022/11/01 05:11:11;;;;;;;;;;;11.90;99.90;;;9.86;100.00;100640.63;10346245;28;19937;-87
2022/11/01 05:16:13;;;;;;;;;;;11.90;99.90;;;9.82;100.00;100641.91;10354780;28;20424;-86
2022/11/01 05:21:21;;;;;;;;;;;11.90;99.90;;;9.82;100.00;100638.41;10347283;28;19934;-87
2022/11/01 05:26:24;;;;;;;;;;;11.90;99.90;;;9.82;100.00;100641.91;10340358;28;19934;-87
2022/11/01 05:31:28;;;;;;;;;;;11.90;99.90;;;9.80;100.00;100641.22;10363631;28;19977;-87
2022/11/01 05:36:31;;;;;;;;;;;11.90;99.90;;;9.78;100.00;100632.59;10344451;28;19934;-86
2022/11/01 05:41:34;;;;;;;;;;;11.90;99.90;;;9.77;100.00;100635.38;10340062;28;19934;-87
2022/11/01 05:46:36;;;;;;;;;;;11.80;99.90;;;9.74;100.00;100643.66;10333160;28;19934;-87
2022/11/01 05:51:39;;;;;;;;;;;11.80;99.90;;;9.73;100.00;100653.44;10316934;28;19941;-89
2022/11/01 05:56:42;;;;;;;;;;;11.80;99.90;;;9.67;100.00;100653.22;10320516;28;20282;-89
2022/11/01 06:01:45;;;;;;;;;;;11.80;99.90;;;9.70;100.00;100651.06;10335460;28;19934;-90
2022/11/01 06:06:48;;;;;;;;;;;11.80;99.90;;;9.68;100.00;100649.56;10356637;28;19941;-86
2022/11/01 06:11:51;;;;;;;;;;;11.80;99.90;;;9.65;100.00;100648.03;10343117;28;19940;-85
2022/11/01 06:16:54;;;;;;;;;;;11.70;99.90;;;9.65;100.00;100656.00;10361428;28;19933;-86
2022/11/01 06:21:57;;;;;;;;;;;11.70;99.90;;;9.63;100.00;100660.63;10350030;28;19964;-87
2022/11/01 06:26:59;;;;;;;;;;;11.70;99.90;;;9.63;100.00;100668.59;10348056;28;19934;-87
2022/11/01 06:32:03;;;;;;;;;;;11.70;99.90;;;9.63;100.00;100665.94;10343727;28;19934;-89
2022/11/01 06:37:06;;;;;;;;;;;11.70;99.90;;;9.59;100.00;100662.75;10338702;28;19933;-86
2022/11/01 06:42:09;;;;;;;;;;;11.70;99.90;;;9.57;100.00;100664.72;10345566;28;20018;-86
2022/11/01 06:47:12;;;;;;;;;;;11.70;99.90;;;9.62;100.00;100675.72;10333978;28;19933;-84
2022/11/01 06:52:15;;;;;;;;;;;11.70;99.90;;;9.66;100.00;100673.63;10331124;28;19934;-84
2022/11/01 06:57:17;;;;;;;;;;;11.80;99.90;;;9.69;100.00;100681.25;10341473;28;19934;-85
2022/11/01 07:02:20;;;;;;;;;;;11.80;99.90;;;9.71;100.00;100679.28;10338788;28;20059;-85
2022/11/01 07:07:30;;;;;;;;;;;11.80;99.90;;;9.75;100.00;100683.31;10337767;28;19984;-85
2022/11/01 07:12:33;;;;;;;;;;;11.80;99.90;;;9.73;100.00;100676.50;10312783;28;20381;-85
2022/11/01 07:17:36;;;;;;;;;;;11.80;99.90;;;9.75;100.00;100675.34;10341178;28;19940;-85
2022/11/01 07:22:39;;;;;;;;;;;11.80;99.90;;;9.76;100.00;100674.34;10351526;28;19938;-86
2022/11/01 07:27:42;;;;;;;;;;;11.80;99.90;;;9.81;100.00;100684.53;10339274;28;19946;-86
2022/11/01 07:32:45;;;;;;;;;;;11.90;99.90;;;9.86;100.00;100693.72;10335925;28;20032;-86
2022/11/01 07:37:48;;;;;;;;;;;11.90;99.90;;;9.90;100.00;100692.44;10353384;28;20382;-85
2022/11/01 07:42:52;;;;;;;;;;;12.00;99.90;;;9.94;100.00;100684.97;10342883;28;19934;-85
2022/11/01 07:48:02;;;;;;;;;;;12.00;99.90;;;9.98;100.00;100682.88;10336003;28;19934;-85
2022/11/01 07:53:06;;;;;;;;;;;12.00;99.90;;;9.99;100.00;100681.88;10359046;28;19934;-85
2022/11/01 07:58:10;;;;;;;;;;;12.10;99.90;;;9.99;100.00;100680.06;10329437;28;19934;-86
2022/11/01 08:03:15;;;;;;;;;;;12.10;99.90;;;9.98;100.00;100678.38;10333168;28;19934;-85
2022/11/01 08:08:18;;;;;;;;;;;12.10;99.90;;;9.97;100.00;100683.88;10345708;28;19934;-86
2022/11/01 08:13:23;;;;;;;;;;;12.00;99.90;;;9.99;100.00;100673.91;10345890;28;19933;-86
2022/11/01 08:18:26;;;;;;;;;;;12.00;99.90;;;9.99;100.00;100676.56;10376165;28;20028;-86
2022/11/01 08:23:29;;;;;;;;;;;12.10;99.90;;;10.02;100.00;100678.94;10341645;28;19934;-86
2022/11/01 08:28:32;;;;;;;;;;;12.10;99.90;;;10.08;100.00;100678.31;10336285;28;19934;-87
2022/11/01 08:33:35;;;;;;;;;;;12.10;99.90;;;10.13;100.00;100684.81;10347162;28;19941;-86
2022/11/01 08:38:38;;;;;;;;;;;12.20;99.90;;;10.19;100.00;100683.38;10336443;28;20000;-87
2022/11/01 08:43:40;;;;;;;;;;;12.30;99.90;;;10.18;100.00;100679.03;10321485;28;19934;-87
2022/11/01 08:48:46;;;;;;;;;;;12.30;99.90;;;10.16;100.00;100673.06;10361356;28;19934;-86
2022/11/01 08:53:49;;;;;;;;;;;12.30;99.90;;;10.13;100.00;100676.00;10340969;28;19941;-86
2022/11/01 08:58:53;;;;;;;;;;;12.30;99.90;;;10.11;100.00;100670.03;10340469;28;19934;-86
2022/11/01 09:03:57;;;;;;;;;;;12.20;99.90;;;10.11;100.00;100667.38;10354546;28;20349;-86
2022/11/01 09:09:00;;;;;;;;;;;12.20;99.90;;;10.13;100.00;100657.44;10350677;28;19934;-86
2022/11/01 09:14:03;;;;;;;;;;;12.20;99.90;;;10.17;100.00;100667.59;10349380;28;19940;-87
2022/11/01 09:19:05;;;;;;;;;;;12.30;99.90;;;10.19;100.00;100673.59;10335704;28;19933;-86
2022/11/01 09:24:10;;;;;;;;;;;12.30;99.90;;;10.21;100.00;100669.97;10349266;28;20423;-86
2022/11/01 09:29:13;;;;;;;;;;;12.30;99.90;;;10.27;100.00;100670.19;10343820;28;19941;-85
2022/11/01 09:34:16;;;;;;;;;;;12.30;99.90;;;10.31;100.00;100666.22;10361279;28;19956;-86
2022/11/01 09:39:20;;;;;;;;;;;12.40;99.90;;;10.37;100.00;100654.16;10369046;28;19938;-85
2022/11/01 09:44:30;;;;;;;;;;;12.40;99.90;;;10.43;100.00;100654.38;10321925;28;19934;-85
2022/11/01 09:49:39;;;;;;;;;;;12.50;99.90;;;10.53;100.00;100659.59;10322136;28;19934;-84
2022/11/01 09:54:42;;;;;;;;;;;12.60;99.90;;;10.57;100.00;100652.16;10339981;28;19973;-85
2022/11/01 10:00:19;;;;;;;;;;;12.70;99.90;;;10.59;100.00;100656.31;10331688;28;19934;-87
2022/11/01 10:05:34;;;;;;;;;;;12.70;99.90;;;10.58;100.00;100651.16;10303214;28;19977;-85
2022/11/01 10:11:02;;;;;;;;;;;12.70;99.90;;;10.55;100.00;100654.09;10331642;28;19941;-85
2022/11/01 10:16:35;;;;;;;;;;;12.60;99.90;;;10.55;100.00;100641.66;10356222;28;19934;-85
2022/11/01 10:21:49;;;;;;;;;;;12.60;99.90;;;10.62;100.00;100644.53;10357278;28;19938;-85
2022/11/01 10:26:58;;;;;;;;;;;12.70;99.90;;;10.69;100.00;100637.59;10329315;28;20018;-84
2022/11/01 10:32:03;;;;;;;;;;;12.70;99.90;;;10.78;100.00;100639.28;10351128;28;19934;-85
2022/11/01 10:37:28;;;;;;;;;;;12.80;99.90;;;10.88;100.00;100640.03;10311167;28;20030;-84
2022/11/01 10:42:31;;;;;;;;;;;12.90;99.90;;;10.93;100.00;100635.06;10371005;28;19942;-85
2022/11/01 10:47:34;;;;;;;;;;;13.00;99.90;;;10.98;100.00;100619.47;10338591;28;20405;-84
2022/11/01 10:52:46;;;;;;;;;;;13.10;99.90;;;11.11;100.00;100621.66;10367253;28;19933;-87
2022/11/01 10:57:57;;;;;;;;;;;13.20;99.90;;;11.25;100.00;100612.22;10350945;28;20020;-86
2022/11/01 11:03:17;;;;;;;;;;;13.30;99.90;;;11.38;100.00;100625.06;10350618;28;19973;-85
2022/11/01 11:08:22;;;;;;;;;;;13.40;99.90;;;11.38;100.00;100623.22;10364069;28;19934;-85
2022/11/01 11:13:25;;;;;;;;;;;13.50;99.90;;;11.44;100.00;100614.59;10327094;28;19934;-85
2022/11/01 11:18:36;;;;;;;;;;;13.60;99.90;;;11.43;99.74;100607.63;10356507;28;19985;-86
2022/11/01 11:23:44;;;;;;;;;;;13.60;99.90;;;11.41;99.27;100604.28;10362577;28;19984;-86
2022/11/01 11:28:52;;;;;;;;;;;13.50;99.90;;;11.40;99.21;100597.31;10353167;28;19941;-85
2022/11/01 11:34:10;;;;;;;;;;;13.50;99.90;;;11.40;98.69;100605.28;10358241;28;19934;-85
2022/11/01 11:39:28;;;;;;;;;;;13.50;99.90;;;11.40;98.53;100588.50;10338567;28;19934;-86
2022/11/01 11:44:33;;;;;;;;;;;13.50;99.90;;;11.35;97.95;100596.97;10338264;28;20416;-86
2022/11/01 11:49:37;;;;;;;;;;;13.50;99.90;;;11.28;97.75;100592.47;10352096;28;20316;-86
2022/11/01 11:54:42;;;;;;;;;;;13.50;99.90;;;11.33;98.08;100579.47;10339032;28;19934;-86
2022/11/01 11:59:49;;;;;;;;;;;13.50;99.90;;;11.43;98.39;100591.66;10362046;28;19941;-85
2022/11/01 12:05:00;;;;;;;;;;;13.60;99.90;;;11.56;98.32;100579.69;10346810;28;19933;-86
2022/11/01 12:10:05;;;;;;;;;;;13.70;99.90;;;11.67;97.97;100574.03;10347778;28;20402;-86
2022/11/01 12:15:27;;;;;;;;;;;13.80;99.90;;;11.72;97.37;100572.53;10355571;28;19956;-86
2022/11/01 12:20:35;;;;;;;;;;;13.90;99.90;;;11.72;96.61;100577.03;10352061;28;19934;-86
2022/11/01 12:25:41;;;;;;;;;;;13.80;99.90;;;11.74;96.56;100569.72;10343329;28;19961;-86
2022/11/01 12:30:44;;;;;;;;;;;13.90;99.90;;;11.75;96.01;100568.72;10338593;28;19984;-87
2022/11/01 12:35:48;;;;;;;;;;;13.90;99.90;;;11.74;96.12;100556.41;10341940;28;19941;-86
2022/11/01 12:40:51;;;;;;;;;;;13.80;99.90;;;11.76;95.58;100557.09;10352463;28;20068;-86
2022/11/01 12:46:11;;;;;;;;;;;13.90;99.90;;;11.74;95.32;100541.25;10331931;28;19934;-85
2022/11/01 12:51:31;;;;;;;;;;;13.90;99.90;;;11.75;94.84;100531.44;10323133;28;19940;-88
2022/11/01 12:56:34;;;;;;;;;;;13.90;99.90;;;11.72;94.07;100539.78;10356663;28;19934;-89
2022/11/01 13:01:38;;;;;;;;;;;13.90;99.90;;;11.78;94.43;100539.94;10340048;28;32165;-90
2022/11/01 13:06:55;;;;;;;;;;;13.90;99.90;;;11.81;94.37;100530.78;10346567;28;19934;-91
2022/11/01 13:12:08;;;;;;;;;;;14.00;99.90;;;11.84;93.84;100537.63;10320458;28;19940;-90
2022/11/01 13:17:42;;;;;;;;;;;14.00;99.90;;;11.75;93.68;100528.78;10352006;28;19934;-90
2022/11/01 13:23:10;;;;;;;;;;;14.00;99.90;;;11.76;93.92;100531.28;10351092;28;20309;-84
2022/11/01 13:28:40;;;;;;;;;;;13.90;99.90;;;11.73;93.78;100526.28;10343255;28;19933;-87
2022/11/01 13:34:22;;;;;;;;;;;13.90;99.90;;;11.67;93.53;100513.63;10342063;28;20024;-87
2022/11/01 13:39:47;;;;;;;;;;;13.80;99.90;;;11.68;93.70;100525.13;10339571;28;19934;-87
2022/11/01 13:45:20;;;;;;;;;;;13.80;99.90;;;11.67;93.88;100523.47;10342216;28;19934;-87
2022/11/01 13:50:41;;;;;;;;;;;13.80;99.90;;;11.65;93.84;100528.13;10268798;28;19942;-87
2022/11/01 13:55:58;;;;;;;;;;;13.80;99.90;;;11.58;93.54;100521.81;10293213;28;19935;-87
2022/11/01 14:01:28;;;;;;;;;;;13.70;99.90;;;11.56;93.78;100523.78;10278275;28;19934;-88
2022/11/01 14:06:36;;;;;;;;;;;13.70;99.90;;;11.53;93.82;100515.16;10283400;28;19934;-87
2022/11/01 14:11:52;;;;;;;;;;;13.60;99.90;;;11.48;93.77;100511.31;10265747;28;20025;-88
2022/11/01 14:17:20;;;;;;;;;;;13.60;99.90;;;11.40;93.73;100529.97;10297576;28;19934;-88
2022/11/01 14:22:26;;;;;;;;;;;13.50;99.90;;;11.37;93.65;100525.78;10296365;28;20238;-88
2022/11/01 14:27:34;;;;;;;;;;;13.50;99.90;;;11.36;93.88;100517.97;10296227;28;19935;-88
2022/11/01 14:32:37;;;;;;;;;;;13.50;99.90;;;11.34;93.82;100520.81;10296072;28;20343;-88
2022/11/01 14:37:43;;;;;;;;;;;13.50;99.90;;;11.32;94.09;100525.44;10296669;28;19934;-88
2022/11/01 14:42:51;;;;;;;;;;;13.40;99.90;;;11.32;94.20;100517.47;10281710;28;19935;-88
2022/11/01 14:47:58;;;;;;;;;;;13.40;99.90;;;11.32;94.10;100516.63;10325717;28;19934;-88
2022/11/01 14:53:22;;;;;;;;;;;13.40;99.90;;;11.31;94.21;100517.63;10362010;28;19934;-88
2022/11/01 14:58:26;;;;;;;;;;;13.40;99.90;;;11.29;94.35;100523.13;10329409;28;20029;-88
2022/11/01 15:03:29;;;;;;;;;;;13.40;99.90;;;11.30;94.36;100526.63;10360134;28;19985;-88
2022/11/01 15:08:40;;;;;;;;;;;13.40;99.90;;;11.23;94.08;100531.75;10327342;28;19934;-87
2022/11/01 15:13:44;;;;;;;;;;;13.30;99.90;;;11.19;94.30;100535.72;10322941;28;19934;-87
2022/11/01 15:18:53;;;;;;;;;;;13.30;99.90;;;11.15;94.45;100529.91;10361375;28;20028;-88
2022/11/01 15:23:57;;;;;;;;;;;13.20;99.90;;;11.12;94.45;100524.09;10319798;28;19982;-88
2022/11/01 15:29:04;;;;;;;;;;;13.20;99.90;;;11.14;94.91;100524.75;10344446;28;19934;-87
2022/11/01 15:34:22;;;;;;;;;;;13.20;99.90;;;11.15;94.83;100526.41;10318750;28;20025;-87
2022/11/01 15:39:30;;;;;;;;;;;13.20;99.90;;;11.18;95.26;100526.91;10347340;28;20028;-88
2022/11/01 15:44:34;;;;;;;;;;;13.30;99.90;;;11.20;95.37;100526.75;10340218;28;19934;-87
2022/11/01 15:49:55;;;;;;;;;;;13.30;99.90;;;11.21;95.32;100515.09;10337997;28;19934;-88
2022/11/01 15:55:08;;;;;;;;;;;13.30;99.90;;;11.22;95.39;100522.94;10349393;28;20016;-88
2022/11/01 16:00:17;;;;;;;;;;;13.30;99.90;;;11.23;95.42;100539.75;10350003;28;20381;-88
2022/11/01 16:05:24;;;;;;;;;;;13.30;99.90;;;11.21;95.62;100533.72;10309010;28;20063;-88
2022/11/01 16:10:29;;;;;;;;;;;13.30;99.90;;;11.21;95.66;100537.22;10373947;28;19934;-88
2022/11/01 16:15:33;;;;;;;;;;;13.30;99.90;;;11.21;95.85;100523.09;10325645;28;19977;-88
2022/11/01 16:20:42;;;;;;;;;;;13.30;99.90;;;11.22;95.84;100533.59;10309079;28;20391;-88
2022/11/01 16:25:44;;;;;;;;;;;13.40;99.90;;;11.25;96.24;100535.06;10349615;28;19942;-88
2022/11/01 16:30:49;;;;;;;;;;;13.40;99.90;;;11.24;96.14;100539.56;10292588;28;20017;-87
2022/11/01 16:36:00;;;;;;;;;;;13.40;99.90;;;11.23;96.09;100539.75;10309065;28;19934;-88
2022/11/01 16:41:14;;;;;;;;;;;13.40;99.90;;;11.22;96.27;100554.03;10309197;28;19969;-88
2022/11/01 16:46:18;;;;;;;;;;;13.40;99.90;;;11.19;96.35;100543.72;10314659;28;19933;-88
2022/11/01 16:51:25;;;;;;;;;;;13.30;99.90;;;11.18;96.34;100537.56;10313181;28;20026;-88
2022/11/01 16:56:36;;;;;;;;;;;13.30;99.90;;;11.19;96.51;100544.53;10315407;28;19964;-88
2022/11/01 17:01:39;;;;;;;;;;;13.30;99.90;;;11.21;96.57;100549.69;10313228;28;19922;-88
2022/11/01 17:06:43;;;;;;;;;;;13.30;99.90;;;11.20;96.66;100550.69;10347095;28;20423;-88
2022/11/01 17:11:46;;;;;;;;;;;13.30;99.90;;;11.17;96.66;100553.69;10364030;28;19934;-87
2022/11/01 17:16:55;;;;;;;;;;;13.30;99.90;;;11.14;96.70;100548.69;10347634;28;19941;-87
2022/11/01 17:22:13;;;;;;;;;;;13.30;99.90;;;11.12;96.79;100548.84;10341331;28;19941;-87
2022/11/01 17:27:17;;;;;;;;;;;13.20;99.90;;;11.09;96.82;100554.47;10342817;28;19934;-87
2022/11/01 17:32:20;;;;;;;;;;;13.20;99.90;;;11.06;96.86;100556.66;10346049;28;19934;-87
2022/11/01 17:37:24;;;;;;;;;;;13.10;99.90;;;11.02;97.16;100540.19;10363023;28;19957;-88
2022/11/01 17:42:27;;;;;;;;;;;13.10;99.90;;;11.03;97.39;100543.66;10345629;28;20310;-87
2022/11/01 17:47:30;;;;;;;;;;;13.10;99.90;;;11.02;97.42;100548.16;10367247;28;20389;-87
2022/11/01 17:52:33;;;;;;;;;;;13.10;99.90;;;11.01;97.40;100545.66;10346542;28;20405;-88
2022/11/01 17:57:38;;;;;;;;;;;13.00;99.90;;;10.99;97.17;100544.00;10344761;28;20385;-88
2022/11/01 18:02:41;;;;;;;;;;;13.00;99.90;;;10.98;97.65;100544.19;10345075;28;20394;-88
2022/11/01 18:07:46;;;;;;;;;;;13.10;99.90;;;10.97;97.67;100530.06;10328639;28;19934;-88
2022/11/01 18:13:04;;;;;;;;;;;13.00;99.90;;;10.97;97.70;100532.72;10305106;28;20061;-88
2022/11/01 18:18:28;;;;;;;;;;;13.00;99.90;;;10.96;97.77;100532.84;10332726;28;19934;-89
2022/11/01 18:23:31;;;;;;;;;;;13.00;99.90;;;10.95;97.87;100531.19;10346330;28;20401;-88
2022/11/01 18:28:34;;;;;;;;;;;13.00;99.90;;;10.94;97.89;100530.34;10328350;28;19934;-88
2022/11/01 18:34:05;;;;;;;;;;;13.00;99.90;;;10.93;97.86;100528.69;10344662;28;19933;-89
2022/11/01 18:39:25;;;;;;;;;;;13.00;99.90;;;10.95;98.01;100532.03;10364295;28;20369;-88
2022/11/01 18:44:28;;;;;;;;;;;13.00;99.90;;;10.98;98.01;100530.88;10359295;28;20394;-89
2022/11/01 18:49:31;;;;;;;;;;;13.00;99.90;;;10.97;98.09;100526.53;10322468;28;19941;-88
2022/11/01 18:54:37;;;;;;;;;;;13.00;99.90;;;11.03;97.93;100538.34;10360074;28;19940;-87
2022/11/01 18:59:40;;;;;;;;;;;13.10;99.90;;;11.00;97.75;100531.53;10325738;28;19956;-85
2022/11/01 19:04:45;;;;;;;;;;;13.10;99.90;;;10.99;97.62;100541.34;10346807;28;19938;-85
2022/11/01 19:09:58;;;;;;;;;;;13.00;99.90;;;10.98;97.33;100546.84;10377989;28;19933;-87
2022/11/01 19:15:03;;;;;;;;;;;13.00;99.90;;;10.96;97.52;100541.66;10351687;28;19965;-88
2022/11/01 19:20:21;;;;;;;;;;;13.00;99.90;;;11.03;97.58;100541.84;10363126;28;19934;-89
2022/11/01 19:25:29;;;;;;;;;;;13.10;99.90;;;11.05;97.56;100539.03;10335439;28;19985;-86
2022/11/01 19:30:32;;;;;;;;;;;13.10;99.90;;;11.07;97.32;100545.00;10333572;28;19941;-88
2022/11/01 19:35:36;;;;;;;;;;;13.10;99.90;;;11.06;97.06;100530.06;10329915;28;19938;-88
2022/11/01 19:40:40;;;;;;;;;;;13.10;99.90;;;11.02;97.08;100532.19;10349712;28;19933;-86
2022/11/01 19:45:51;;;;;;;;;;;13.10;99.90;;;10.97;96.97;100535.38;10329978;28;19933;-85
2022/11/01 19:50:54;;;;;;;;;;;13.10;99.90;;;10.96;96.86;100546.97;10363999;28;19977;-85
2022/11/01 19:55:57;;;;;;;;;;;13.00;99.90;;;10.95;96.98;100550.63;10350186;28;19933;-85
2022/11/01 20:01:00;;;;;;;;;;;13.00;99.90;;;10.92;96.81;100558.94;10347609;28;19934;-85
2022/11/01 20:06:12;;;;;;;;;;;12.90;99.90;;;10.88;96.73;100554.94;10359546;28;20294;-85
2022/11/01 20:11:15;;;;;;;;;;;12.90;99.90;;;10.88;96.80;100556.75;10348717;28;19934;-85
2022/11/01 20:16:18;;;;;;;;;;;12.90;99.90;;;10.89;96.88;100539.81;10339028;28;19981;-85
2022/11/01 20:21:21;;;;;;;;;;;12.90;99.90;;;10.88;96.82;100536.31;10364162;28;19934;-86
2022/11/01 20:26:24;;;;;;;;;;;12.90;99.90;;;10.85;96.68;100544.59;10325896;28;19945;-85
2022/11/01 20:31:27;;;;;;;;;;;12.90;99.90;;;10.78;96.55;100556.06;10343621;28;19941;-85
2022/11/01 20:36:29;;;;;;;;;;;12.90;99.90;;;10.68;96.35;100558.84;10348718;28;19933;-86
2022/11/01 20:41:32;;;;;;;;;;;12.80;99.90;;;10.61;96.21;100553.31;10341426;28;19934;-86
2022/11/01 20:46:35;;;;;;;;;;;12.70;99.90;;;10.56;96.69;100557.47;10336335;28;20484;-86
2022/11/01 20:51:39;;;;;;;;;;;12.60;99.90;;;10.49;96.65;100551.09;10358400;28;20024;-86
2022/11/01 20:56:42;;;;;;;;;;;12.60;99.90;;;10.38;96.59;100545.09;10346325;28;20032;-85
2022/11/01 21:01:45;;;;;;;;;;;12.50;99.90;;;10.30;96.56;100538.88;10354481;28;20386;-85
2022/11/01 21:06:48;;;;;;;;;;;12.40;99.90;;;10.19;96.79;100547.91;10343319;28;20016;-86
2022/11/01 21:11:52;;;;;;;;;;;12.30;99.90;;;10.03;96.51;100558.47;10327511;28;19981;-86
2022/11/01 21:16:55;;;;;;;;;;;12.10;99.90;;;9.98;96.79;100568.72;10347554;28;19957;-86
2022/11/01 21:21:58;;;;;;;;;;;12.10;99.90;;;9.89;97.02;100562.47;10346995;28;19941;-86
2022/11/01 21:27:09;;;;;;;;;;;12.00;99.90;;;9.81;97.22;100570.41;10361477;28;19940;-85
2022/11/01 21:32:25;;;;;;;;;;;11.90;99.90;;;9.74;97.61;100561.38;10336999;28;20301;-86
2022/11/01 21:37:28;;;;;;;;;;;11.80;99.90;;;9.63;97.30;100562.44;10356944;28;19937;-86
2022/11/01 21:42:34;;;;;;;;;;;11.70;99.90;;;9.52;97.73;100562.69;10335213;28;20398;-86
2022/11/01 21:47:37;;;;;;;;;;;11.60;99.90;;;9.39;97.94;100542.69;10340982;28;19934;-85
2022/11/01 21:52:47;;;;;;;;;;;11.50;99.90;;;9.27;97.68;100551.84;10371260;28;19934;-85
2022/11/01 21:57:50;;;;;;;;;;;11.40;99.90;;;9.17;98.05;100548.41;10336878;28;20404;-86
2022/11/01 22:02:53;;;;;;;;;;;11.30;99.90;;;9.04;97.79;100553.25;10345166;28;19945;-86
2022/11/01 22:07:56;;;;;;;;;;;11.20;99.90;;;8.93;98.14;100574.66;10342682;28;19941;-87
2022/11/01 22:12:59;;;;;;;;;;;11.00;99.90;;;8.90;98.48;100553.78;10325078;28;19941;-87
2022/11/01 22:18:08;;;;;;;;;;;11.00;99.90;;;8.95;99.07;100554.16;10335509;28;20028;-88
2022/11/01 22:23:11;;;;;;;;;;;11.10;99.90;;;9.00;99.49;100558.03;10324312;28;20382;-87
2022/11/01 22:28:14;;;;;;;;;;;11.10;99.90;;;9.03;99.50;100562.19;10331375;28;19940;-87
2022/11/01 22:33:16;;;;;;;;;;;11.20;99.90;;;9.00;99.60;100557.22;10336645;28;19969;-87
2022/11/01 22:38:21;;;;;;;;;;;11.20;99.90;;;9.07;100.00;100569.72;10322858;28;19934;-87
2022/11/01 22:43:24;;;;;;;;;;;11.20;99.90;;;9.07;100.00;100555.63;10337188;28;19937;-87
2022/11/01 22:48:29;;;;;;;;;;;11.20;99.90;;;9.02;100.00;100557.88;10356361;28;20020;-87
2022/11/01 22:53:32;;;;;;;;;;;11.10;99.90;;;8.94;100.00;100555.16;10340922;28;19957;-87
2022/11/01 22:58:36;;;;;;;;;;;11.10;99.90;;;8.89;100.00;100574.16;10335779;28;19933;-87
2022/11/01 23:03:40;;;;;;;;;;;11.00;99.90;;;8.78;100.00;100558.44;10338685;28;19956;-87